createdAt,value
2023-11-18T05:59:07.910Z,90.00
2023-11-18T06:02:07.994Z,90.00
2023-11-18T06:05:07.968Z,90.00
2023-11-18T06:08:07.748Z,90.00
2023-11-18T06:11:07.876Z,90.00
2023-11-18T06:14:07.763Z,90.00
2023-11-18T06:17:08.090Z,90.00
2023-11-18T06:20:07.889Z,94.63
2023-11-18T06:23:07.812Z,97.57
2023-11-18T06:26:07.686Z,90.00
2023-11-18T06:29:07.948Z,90.00
2023-11-18T06:32:07.799Z,99.51
2023-11-18T06:35:08.019Z,135.00
2023-11-18T06:38:07.645Z,135.00
2023-11-18T06:41:07.949Z,135.00
2023-11-18T06:44:07.768Z,126.99
2023-11-18T06:47:08.133Z,90.00
2023-11-18T06:50:07.871Z,90.00
2023-11-18T06:53:07.943Z,90.00
2023-11-18T06:56:07.787Z,90.00
2023-11-18T06:59:07.926Z,90.00
2023-11-18T07:02:07.978Z,90.00
2023-11-18T07:05:08.073Z,90.00
2023-11-18T07:08:07.708Z,90.00
2023-11-18T07:11:07.853Z,90.00
2023-11-18T07:14:07.898Z,90.00
2023-11-18T07:17:07.908Z,90.00
2023-11-18T07:20:07.828Z,90.00
2023-11-18T07:23:07.843Z,90.00
2023-11-18T07:26:07.736Z,90.00
2023-11-18T07:29:07.783Z,90.00
2023-11-18T07:32:07.716Z,90.00
2023-11-18T07:35:07.962Z,90.00
2023-11-18T07:38:07.851Z,90.00
2023-11-18T07:41:07.840Z,124.66
2023-11-18T07:44:07.768Z,135.00
2023-11-18T07:47:07.914Z,135.00
2023-11-18T07:50:07.810Z,135.00
2023-11-18T07:53:07.970Z,135.00
2023-11-18T07:56:07.864Z,119.82
2023-11-18T07:59:08.005Z,91.07
2023-11-18T08:02:07.832Z,91.63
2023-11-18T08:05:08.015Z,90.00
2023-11-18T08:08:07.825Z,90.00
2023-11-18T08:11:07.968Z,90.00
2023-11-18T08:14:07.808Z,90.00
2023-11-18T08:17:07.896Z,90.00
2023-11-18T08:20:07.741Z,90.00
2023-11-18T08:23:07.997Z,93.39
2023-11-18T08:26:07.767Z,105.48
2023-11-18T08:29:08.065Z,103.81
2023-11-18T08:32:07.761Z,106.13
2023-11-18T08:35:08.135Z,114.74
2023-11-18T08:38:07.807Z,139.18
2023-11-18T08:41:08.030Z,131.64
2023-11-18T08:44:18.331Z,139.08
2023-11-18T08:47:07.960Z,143.17
2023-11-18T08:50:07.780Z,136.86
2023-11-18T08:53:07.949Z,122.30
2023-11-18T08:56:07.806Z,107.59
2023-11-18T08:59:07.929Z,106.56
2023-11-18T09:02:07.723Z,117.99
2023-11-18T09:05:07.874Z,131.36
2023-11-18T09:08:07.809Z,140.34
2023-11-18T09:11:07.946Z,158.49
2023-11-18T09:14:07.881Z,152.42
2023-11-18T09:17:08.020Z,153.32
2023-11-18T09:20:07.805Z,157.27
2023-11-18T09:23:07.910Z,161.83
2023-11-18T09:26:07.864Z,163.88
2023-11-18T09:29:08.054Z,156.80
2023-11-18T09:32:07.938Z,146.17
2023-11-18T09:35:07.893Z,147.96
2023-11-18T09:38:07.897Z,152.45
2023-11-18T09:41:08.044Z,150.69
2023-11-18T09:44:07.838Z,161.87
2023-11-18T09:47:07.877Z,155.28
2023-11-18T09:50:07.701Z,152.22
2023-11-18T09:53:07.849Z,151.03
2023-11-18T09:56:07.698Z,143.85
2023-11-18T09:59:08.020Z,140.98
2023-11-18T10:02:07.899Z,152.24
2023-11-18T10:05:07.836Z,165.41
2023-11-18T10:08:07.751Z,161.18
2023-11-18T10:11:08.050Z,153.60
2023-11-18T10:14:07.769Z,140.28
2023-11-18T10:17:08.391Z,143.46
2023-11-18T10:20:07.877Z,132.29
2023-11-18T10:23:07.994Z,142.94
2023-11-18T10:26:07.786Z,158.28
2023-11-18T10:29:08.042Z,158.81
2023-11-18T10:32:07.883Z,148.24
2023-11-18T10:35:08.068Z,146.85
2023-11-18T10:38:07.764Z,143.87
2023-11-18T10:41:07.872Z,151.68
2023-11-18T10:44:07.883Z,156.66
2023-11-18T10:47:08.142Z,153.41
2023-11-18T10:50:07.954Z,122.08
2023-11-18T10:53:08.098Z,134.31
2023-11-18T10:56:07.813Z,159.32
2023-11-18T10:59:07.933Z,146.18
2023-11-18T11:02:07.897Z,149.93
2023-11-18T11:05:08.093Z,170.18
2023-11-18T11:08:08.028Z,160.66
2023-11-18T11:11:07.910Z,157.09
2023-11-18T11:14:07.847Z,158.73
2023-11-18T11:17:08.045Z,149.29
2023-11-18T11:20:07.848Z,143.25
2023-11-18T11:23:07.932Z,151.00
2023-11-18T11:26:07.814Z,160.82
2023-11-18T11:29:07.874Z,156.82
2023-11-18T11:32:07.857Z,153.18
2023-11-18T11:35:07.975Z,126.70
2023-11-18T11:38:07.994Z,140.58
2023-11-18T11:41:08.029Z,135.51
2023-11-18T11:44:07.781Z,144.73
2023-11-18T11:47:08.025Z,133.27
2023-11-18T11:50:07.835Z,143.08
2023-11-18T11:53:08.078Z,140.64
2023-11-18T11:56:07.878Z,137.16
2023-11-18T11:59:07.937Z,143.66
2023-11-18T12:02:07.843Z,146.55
2023-11-18T12:05:08.259Z,136.25
2023-11-18T12:08:07.856Z,131.21
2023-11-18T12:11:07.818Z,127.55
2023-11-18T12:14:07.898Z,141.89
2023-11-18T12:17:07.982Z,145.47
2023-11-18T12:20:07.857Z,126.85
2023-11-18T12:23:07.962Z,141.29
2023-11-18T12:26:07.859Z,143.87
2023-11-18T12:29:08.257Z,138.46
2023-11-18T12:32:07.832Z,141.10
2023-11-18T12:35:07.951Z,157.92
2023-11-18T12:38:07.955Z,148.49
2023-11-18T12:41:07.986Z,144.10
2023-11-18T12:44:08.006Z,136.61
2023-11-18T12:47:07.926Z,143.69
2023-11-18T12:50:07.913Z,147.60
2023-11-18T12:53:07.961Z,146.32
2023-11-18T12:56:07.966Z,138.38
2023-11-18T12:59:08.012Z,142.76
2023-11-18T13:02:07.927Z,144.14
2023-11-18T13:05:07.867Z,142.92
2023-11-18T13:08:07.808Z,131.91
2023-11-18T13:11:07.945Z,140.76
2023-11-18T13:14:07.877Z,142.99
2023-11-18T13:17:07.923Z,142.81
2023-11-18T13:20:07.946Z,149.82
2023-11-18T13:23:08.128Z,139.46
2023-11-18T13:26:07.892Z,140.79
2023-11-18T13:29:08.000Z,138.72
2023-11-18T13:32:07.800Z,144.77
2023-11-18T13:35:08.036Z,125.51
2023-11-18T13:38:07.792Z,135.98
2023-11-18T13:41:07.952Z,129.08
2023-11-18T13:44:07.810Z,140.64
2023-11-18T13:47:08.044Z,138.35
2023-11-18T13:50:07.850Z,138.84
2023-11-18T13:53:07.984Z,127.26
2023-11-18T13:56:07.896Z,132.45
2023-11-18T13:59:08.040Z,125.67
2023-11-18T14:02:07.884Z,126.83
2023-11-18T14:05:08.002Z,117.82
2023-11-18T14:08:07.920Z,117.29
2023-11-18T14:11:13.316Z,131.39
2023-11-18T14:14:07.879Z,123.32
2023-11-18T14:17:07.999Z,133.32
2023-11-18T14:20:07.803Z,136.50
2023-11-18T14:23:07.928Z,138.72
2023-11-18T14:26:07.773Z,139.51
2023-11-18T14:29:07.951Z,139.04
2023-11-18T14:32:08.008Z,128.82
2023-11-18T14:35:07.905Z,132.31
2023-11-18T14:38:08.118Z,139.27
2023-11-18T14:41:07.952Z,135.38
2023-11-18T14:44:07.900Z,131.73
2023-11-18T14:47:07.967Z,126.65
2023-11-18T14:50:07.997Z,137.26
2023-11-18T14:53:08.090Z,130.37
2023-11-18T14:56:07.913Z,144.15
2023-11-18T14:59:07.957Z,143.62
2023-11-18T15:02:07.989Z,145.01
2023-11-18T15:05:08.117Z,146.98
2023-11-18T15:08:07.921Z,142.90
2023-11-18T15:11:07.932Z,138.70
2023-11-18T15:14:07.890Z,154.47
2023-11-18T15:17:08.000Z,157.36
2023-11-18T15:20:07.878Z,168.06
2023-11-18T15:23:08.029Z,161.37
2023-11-18T15:26:07.899Z,166.33
2023-11-18T15:29:08.052Z,159.77
2023-11-18T15:32:07.894Z,145.99
2023-11-18T15:35:08.225Z,158.04
2023-11-18T15:38:08.001Z,168.86
2023-11-18T15:41:08.037Z,172.76
2023-11-18T15:44:07.898Z,158.64
2023-11-18T15:47:07.908Z,170.22
2023-11-18T15:50:07.997Z,161.85
2023-11-18T15:53:08.294Z,169.90
2023-11-18T15:56:07.864Z,161.74
2023-11-18T15:59:08.052Z,164.53
2023-11-18T16:02:07.727Z,161.63
2023-11-18T16:05:08.084Z,150.96
2023-11-18T16:08:07.806Z,157.08
2023-11-18T16:11:07.973Z,156.99
2023-11-18T16:14:07.855Z,146.47
2023-11-18T16:17:08.125Z,168.93
2023-11-18T16:20:07.964Z,175.35
2023-11-18T16:23:08.040Z,163.86
2023-11-18T16:26:08.085Z,167.91
2023-11-18T16:29:08.052Z,149.33
2023-11-18T16:32:07.956Z,150.23
2023-11-18T16:35:08.029Z,152.01
2023-11-18T16:38:08.091Z,147.82
2023-11-18T16:41:08.125Z,153.06
2023-11-18T16:44:07.877Z,143.42
2023-11-18T16:47:08.192Z,131.60
2023-11-18T16:50:08.017Z,125.61
2023-11-18T16:53:08.196Z,133.32
2023-11-18T16:56:07.800Z,132.17
2023-11-18T16:59:07.983Z,122.83
2023-11-18T17:02:07.819Z,130.84
2023-11-18T17:05:07.943Z,131.04
2023-11-18T17:08:09.040Z,131.95
2023-11-18T17:11:08.064Z,133.85
2023-11-18T17:14:07.992Z,131.66
2023-11-18T17:17:08.125Z,116.85
2023-11-18T17:20:07.852Z,132.57
2023-11-18T17:23:08.009Z,128.85
2023-11-18T17:26:07.897Z,123.90
2023-11-18T17:29:08.196Z,116.56
2023-11-18T17:32:07.971Z,117.48
2023-11-18T17:35:07.998Z,117.13
2023-11-18T17:38:07.793Z,117.83
2023-11-18T17:41:07.967Z,118.10
2023-11-18T17:44:07.852Z,113.24
2023-11-18T17:47:08.100Z,111.20
2023-11-18T17:50:07.793Z,105.04
2023-11-18T17:53:08.064Z,100.10
2023-11-18T17:56:07.912Z,107.41
2023-11-18T17:59:08.202Z,113.41
2023-11-18T18:02:08.064Z,111.33
2023-11-18T18:05:08.177Z,103.94
2023-11-18T18:08:07.868Z,118.95
2023-11-18T18:11:08.091Z,122.78
2023-11-18T18:14:07.910Z,118.31
2023-11-18T18:17:08.070Z,127.08
2023-11-18T18:20:08.724Z,125.40
2023-11-18T18:23:08.105Z,128.50
2023-11-18T18:26:07.890Z,116.52
2023-11-18T18:29:08.071Z,122.69
2023-11-18T18:32:07.876Z,121.66
2023-11-18T18:35:07.930Z,122.50
2023-11-18T18:38:07.832Z,120.71
2023-11-18T18:41:07.912Z,113.59
2023-11-18T18:44:07.848Z,124.84
2023-11-18T18:47:08.122Z,116.98
2023-11-18T18:50:07.977Z,111.39
2023-11-18T18:53:07.968Z,122.44
2023-11-18T18:56:07.919Z,123.46
2023-11-18T18:59:08.022Z,109.53
2023-11-18T19:02:08.040Z,114.75
2023-11-18T19:05:08.057Z,121.34
2023-11-18T19:08:08.010Z,119.20
